KDET/DET METAR and TAF weather

Enter ICAO airport designator
Station Type Date Time Source
KDET METAR 2019/04/26 04:22 UTC NOAA

KDET 260422Z 03007KT 7SM -RA OVC009 08/07 A2959 RMK AO2 P0002 T00830067


Station Type Date Time Source
KDET Decoded METAR 2019/04/26 04:22 UTC NOAA

DETROIT CITY AIRPORT, MI, United States (KDET) 42-25N 083-01W 190M
Apr 26, 2019 - 12:22 AM EDT / 2019.04.26 0422 UTC
Wind: from the NNE (030 degrees) at 8 MPH (7 KT):0
Visibility: 7 mile(s):0
Sky conditions: overcast
Weather: light rain
Precipitation last hour: 0.02 inches
Temperature: 46.9 F (8.3 C)
Dew Point: 44.1 F (6.7 C)
Relative Humidity: 89%
Pressure (altimeter): 29.59 in. Hg (1002 hPa)
ob: KDET 260422Z 03007KT 7SM -RA OVC009 08/07 A2959 RMK AO2 P0002 T00830067
cycle: 4

Station Type Date Time Source
KDET TAF 2019/04/25 19:16 UTC NOAA

TAF
AMD KDET 251914Z 2519/2618 09005KT P6SM VCSH OVC028
FM252100 07005KT P6SM OVC025
FM260200 04005KT 5SM -RA BR OVC018
FM260600 01012KT 3SM -RA BR BKN008 OVC014
FM261400 32016G24KT P6SM SCT015 BKN028
FM261700 30018G28KT P6SM SCT045 BKN150

Example: see airport list